Harmony, Minnesota
Current Conditions -  °F | °C
As of 5:55 AM on Thursday 23 Oct 2014 (Local Time) from KFKA Reporting Station
Overcast Overcast  
Wind Chill: 42°   Ceiling: 2600
Heat Index: 47°   Visibility: 10mi
Dew Point: 44°   Wind: 9mph
Humidity: 90%   Direction: 180°S
Pressure: 30.05"   Gusts: NA
Location:  43.56°N, 92.01°W
Report Text: KFKA 231055Z AUTO 18008KT 10SM BKN026 BKN036 OVC050 08/07 A3005 RMK AO2 T00810065
Loading
Personal Weather Stations






























Interactive Weather Map
Tropical Storm Tracking
New forecast layout! Learn more

10-Day Weather Forecast

Advertisements
Track Severe Weather on mobile